createdAt,value
2023-03-26T00:01:17.376Z,1.00
2023-03-26T00:03:44.673Z,2.10
2023-03-26T00:06:12.461Z,1.60
2023-03-26T00:08:41.125Z,1.60
2023-03-26T00:11:10.071Z,1.90
2023-03-26T00:13:36.660Z,1.60
2023-03-26T00:16:04.394Z,1.60
2023-03-26T00:18:31.406Z,3.10
2023-03-26T00:20:58.912Z,2.70
2023-03-26T00:23:27.714Z,1.70
2023-03-26T00:25:55.021Z,2.10
2023-03-26T00:28:23.599Z,3.20
2023-03-26T00:30:57.367Z,3.10
2023-03-26T00:33:24.368Z,2.20
2023-03-26T00:35:59.202Z,2.70
2023-03-26T00:38:27.806Z,2.20
2023-03-26T00:40:55.295Z,2.40
2023-03-26T00:43:22.977Z,2.70
2023-03-26T00:45:53.175Z,2.50
2023-03-26T00:48:31.329Z,4.40
2023-03-26T00:51:05.986Z,2.80
2023-03-26T00:53:32.888Z,2.10
2023-03-26T00:55:59.810Z,4.40
2023-03-26T00:58:27.627Z,2.50
2023-03-26T01:00:57.415Z,2.70
2023-03-26T01:03:26.680Z,1.40
2023-03-26T01:06:07.027Z,1.30
2023-03-26T01:08:44.837Z,2.80
2023-03-26T01:11:21.790Z,2.50
2023-03-26T01:13:56.495Z,2.00
2023-03-26T01:16:31.208Z,1.50
2023-03-26T01:18:57.901Z,3.20
2023-03-26T01:21:28.266Z,1.30
2023-03-26T01:23:59.130Z,2.30
2023-03-26T01:26:54.546Z,2.30
2023-03-26T01:29:23.829Z,1.30
2023-03-26T01:32:00.965Z,2.30
2023-03-26T01:35:16.188Z,3.80
2023-03-26T01:37:55.830Z,2.50
2023-03-26T01:40:32.965Z,2.60
2023-03-26T01:43:27.699Z,4.50
2023-03-26T01:45:56.435Z,1.60
2023-03-26T01:48:30.239Z,1.60
2023-03-26T01:50:56.769Z,2.60
2023-03-26T01:53:25.526Z,1.00
2023-03-26T01:56:23.260Z,3.10
2023-03-26T01:59:09.775Z,0.80
2023-03-26T02:01:57.218Z,1.40
2023-03-26T02:04:33.248Z,2.40
2023-03-26T02:07:12.805Z,2.40
2023-03-26T02:09:47.903Z,2.40
2023-03-26T02:12:16.206Z,2.10
2023-03-26T02:14:44.386Z,2.00
2023-03-26T02:17:11.270Z,1.70
2023-03-26T02:19:38.978Z,1.80
2023-03-26T02:22:05.504Z,1.90
2023-03-26T02:24:32.011Z,2.00
2023-03-26T02:26:58.540Z,1.10
2023-03-26T02:29:25.118Z,1.60
2023-03-26T02:31:51.653Z,2.50
2023-03-26T02:34:18.281Z,2.30
2023-03-26T02:36:44.850Z,2.10
2023-03-26T02:39:12.233Z,2.50
2023-03-26T02:41:39.089Z,3.00
2023-03-26T02:44:06.198Z,2.00
2023-03-26T02:46:34.009Z,3.40
2023-03-26T02:49:00.619Z,3.90
2023-03-26T02:51:27.166Z,1.90
2023-03-26T02:53:53.728Z,2.40
2023-03-26T02:56:20.533Z,1.60
2023-03-26T02:58:47.054Z,2.50
2023-03-26T03:01:13.768Z,1.70
2023-03-26T03:03:40.297Z,3.60
2023-03-26T03:06:06.938Z,3.00
2023-03-26T03:08:33.464Z,1.30
2023-03-26T03:11:03.117Z,3.80
2023-03-26T03:13:30.114Z,3.20
2023-03-26T03:15:56.833Z,3.60
2023-03-26T03:18:23.651Z,2.90
2023-03-26T03:20:50.259Z,3.00
2023-03-26T03:23:17.296Z,2.80
2023-03-26T03:25:43.823Z,1.30
2023-03-26T03:28:10.573Z,3.70
2023-03-26T03:30:37.423Z,2.90
2023-03-26T03:33:04.354Z,3.30
2023-03-26T03:35:30.953Z,2.80
2023-03-26T03:37:58.331Z,2.00
2023-03-26T03:40:25.602Z,3.00
2023-03-26T03:42:52.406Z,3.90
2023-03-26T03:45:19.283Z,2.50
2023-03-26T03:47:45.862Z,2.90
2023-03-26T03:50:12.430Z,3.10
2023-03-26T03:52:38.981Z,3.30
2023-03-26T03:55:05.897Z,3.60
2023-03-26T03:57:32.839Z,3.00
2023-03-26T03:59:59.395Z,4.10
2023-03-26T04:02:26.869Z,3.30
2023-03-26T04:04:53.657Z,3.90
2023-03-26T04:07:20.256Z,3.40
2023-03-26T04:09:46.749Z,4.40
2023-03-26T04:12:14.096Z,3.20
2023-03-26T04:14:40.649Z,3.90
2023-03-26T04:17:07.144Z,3.30
2023-03-26T04:19:33.700Z,3.50
2023-03-26T04:22:00.485Z,4.40
2023-03-26T04:24:26.981Z,2.80
2023-03-26T04:26:53.539Z,3.70
2023-03-26T04:29:20.062Z,5.10
2023-03-26T04:31:46.625Z,6.10
2023-03-26T04:34:23.522Z,3.90
2023-03-26T04:36:51.056Z,6.50
2023-03-26T04:39:17.931Z,4.40
2023-03-26T04:41:44.434Z,4.50
2023-03-26T04:44:10.997Z,6.00
2023-03-26T04:46:37.623Z,4.20
2023-03-26T04:49:04.192Z,5.50
2023-03-26T04:51:37.550Z,5.20
2023-03-26T04:54:05.917Z,4.60
2023-03-26T04:56:51.009Z,3.60
2023-03-26T04:59:22.376Z,2.60
2023-03-26T05:01:48.988Z,3.10
2023-03-26T05:04:15.615Z,5.10
2023-03-26T05:06:42.244Z,1.70
2023-03-26T05:09:09.092Z,1.70
2023-03-26T05:11:35.569Z,0.90
2023-03-26T05:14:02.144Z,1.30
2023-03-26T05:16:29.464Z,2.00
2023-03-26T05:18:55.982Z,2.70
2023-03-26T05:21:22.503Z,2.90
2023-03-26T05:23:49.205Z,2.80
2023-03-26T05:26:15.727Z,2.10
2023-03-26T05:28:42.315Z,2.30
2023-03-26T05:31:10.081Z,3.30
2023-03-26T05:33:37.192Z,4.60
2023-03-26T05:36:09.650Z,3.20
2023-03-26T05:38:36.828Z,3.50
2023-03-26T05:41:06.940Z,3.70
2023-03-26T05:43:33.846Z,2.70
2023-03-26T05:46:00.417Z,4.10
2023-03-26T05:48:27.981Z,3.70
2023-03-26T05:50:56.492Z,4.60
2023-03-26T05:53:25.485Z,3.40
2023-03-26T05:55:52.159Z,3.70
2023-03-26T05:58:20.959Z,5.20
2023-03-26T06:00:47.610Z,2.90
2023-03-26T06:03:15.133Z,4.50
2023-03-26T06:05:42.286Z,6.50
2023-03-26T06:08:08.982Z,4.10
2023-03-26T06:10:38.808Z,5.50
2023-03-26T06:13:05.918Z,4.70
2023-03-26T06:15:32.493Z,5.10
2023-03-26T06:17:59.270Z,5.50
2023-03-26T06:20:25.995Z,3.10
2023-03-26T06:22:52.532Z,4.10
2023-03-26T06:25:19.357Z,3.90
2023-03-26T06:27:45.832Z,2.70
2023-03-26T06:30:12.890Z,2.80
2023-03-26T06:32:39.448Z,2.60
2023-03-26T06:35:08.976Z,4.70
2023-03-26T06:37:35.687Z,4.60
2023-03-26T06:40:02.217Z,4.90
2023-03-26T06:43:06.672Z,3.50
2023-03-26T06:45:15.447Z,3.80
2023-03-26T06:47:42.326Z,2.80
2023-03-26T06:50:10.739Z,5.50
2023-03-26T06:52:37.549Z,6.20
2023-03-26T06:55:06.268Z,5.20
2023-03-26T06:57:32.932Z,5.20
2023-03-26T06:59:59.519Z,3.70
2023-03-26T07:02:26.270Z,4.80
2023-03-26T07:04:52.838Z,4.50
2023-03-26T07:07:19.621Z,8.80
2023-03-26T07:09:46.209Z,4.60
2023-03-26T07:12:12.834Z,2.70
2023-03-26T07:14:39.382Z,5.10
2023-03-26T07:17:05.958Z,2.80
2023-03-26T07:19:33.240Z,6.60
2023-03-26T07:22:00.160Z,4.60
2023-03-26T07:24:27.369Z,8.00
2023-03-26T07:27:12.538Z,5.10
2023-03-26T07:29:48.743Z,4.80
2023-03-26T07:32:23.984Z,4.70
2023-03-26T07:35:19.216Z,5.70
2023-03-26T07:37:57.865Z,6.30
2023-03-26T07:40:48.827Z,5.60
2023-03-26T07:43:37.259Z,4.90
2023-03-26T07:46:04.374Z,5.70
2023-03-26T07:49:00.237Z,6.90
2023-03-26T07:51:27.256Z,4.90
2023-03-26T07:53:54.050Z,5.00
2023-03-26T07:56:29.365Z,5.40
2023-03-26T07:59:24.418Z,4.40
2023-03-26T08:02:09.882Z,4.80
2023-03-26T08:05:06.433Z,4.60
2023-03-26T08:07:35.714Z,5.30
2023-03-26T08:10:21.093Z,5.30
2023-03-26T08:12:50.854Z,5.40
2023-03-26T08:15:41.569Z,5.10
2023-03-26T08:18:08.927Z,4.40
2023-03-26T08:20:39.356Z,7.30
2023-03-26T08:23:14.114Z,5.70
2023-03-26T08:25:52.785Z,5.40
2023-03-26T08:28:35.358Z,5.40
2023-03-26T08:31:02.130Z,2.80
2023-03-26T08:33:30.259Z,5.00
2023-03-26T08:35:56.842Z,5.80
2023-03-26T08:38:23.757Z,3.70
2023-03-26T08:41:07.692Z,4.10
2023-03-26T08:44:12.053Z,4.10
2023-03-26T08:47:20.205Z,4.50
2023-03-26T08:50:18.985Z,5.70
2023-03-26T08:53:07.097Z,3.90
2023-03-26T08:55:55.642Z,5.60
2023-03-26T08:59:06.955Z,4.70
2023-03-26T09:01:58.072Z,5.70
2023-03-26T09:04:49.271Z,4.90
2023-03-26T09:07:40.597Z,6.50
2023-03-26T09:10:10.136Z,6.20
2023-03-26T09:12:36.672Z,5.80
2023-03-26T09:15:06.011Z,4.30
2023-03-26T09:18:05.245Z,5.90
2023-03-26T09:21:02.261Z,3.20
2023-03-26T09:23:51.460Z,3.20
2023-03-26T09:26:24.116Z,6.00
2023-03-26T09:29:11.802Z,4.50
2023-03-26T09:31:38.305Z,5.30
2023-03-26T09:34:23.065Z,6.70
2023-03-26T09:37:07.860Z,4.90
2023-03-26T09:39:39.126Z,3.20
2023-03-26T09:42:29.512Z,2.10
2023-03-26T09:45:17.942Z,6.80
2023-03-26T09:47:47.138Z,4.80
2023-03-26T09:50:38.551Z,3.30
2023-03-26T09:53:33.591Z,3.80
2023-03-26T09:56:22.184Z,3.50
2023-03-26T09:58:51.469Z,3.10
2023-03-26T10:01:20.811Z,3.40
2023-03-26T10:04:02.340Z,2.40
2023-03-26T10:06:36.379Z,2.40
2023-03-26T10:09:07.661Z,2.80
2023-03-26T10:12:02.082Z,2.70
2023-03-26T10:14:46.664Z,3.20
2023-03-26T10:17:22.175Z,1.90
2023-03-26T10:19:54.783Z,3.00
2023-03-26T10:22:33.615Z,2.70
2023-03-26T10:25:16.149Z,3.50
2023-03-26T10:28:03.042Z,4.60
2023-03-26T10:30:47.500Z,4.50
2023-03-26T10:33:41.944Z,5.50
2023-03-26T10:36:30.035Z,6.40
2023-03-26T10:39:37.316Z,3.60
2023-03-26T10:42:31.478Z,3.10
2023-03-26T10:45:26.114Z,2.00
2023-03-26T10:48:06.526Z,4.90
2023-03-26T10:50:51.959Z,8.80
2023-03-26T10:53:40.276Z,9.00
2023-03-26T10:56:35.055Z,6.70
2023-03-26T10:59:12.092Z,6.20
2023-03-26T11:02:17.543Z,5.20
2023-03-26T11:05:49.241Z,3.20
2023-03-26T11:11:15.038Z,2.60
2023-03-26T11:13:56.705Z,2.60
2023-03-26T11:16:55.351Z,2.20
2023-03-26T11:19:40.503Z,2.00
2023-03-26T11:22:41.704Z,3.40
2023-03-26T11:25:45.735Z,2.90
2023-03-26T11:29:03.743Z,4.80
2023-03-26T11:31:59.094Z,2.90
2023-03-26T11:37:04.239Z,4.00
2023-03-26T11:42:12.164Z,3.80
2023-03-26T11:44:45.078Z,2.40
2023-03-26T11:47:15.667Z,3.20
2023-03-26T11:49:45.541Z,2.80
2023-03-26T11:52:15.511Z,4.30
2023-03-26T11:54:42.125Z,3.00
2023-03-26T11:57:16.103Z,4.50
2023-03-26T11:59:56.518Z,3.20
2023-03-26T12:02:37.881Z,3.20
2023-03-26T12:05:21.368Z,3.80
2023-03-26T12:07:55.646Z,5.50
2023-03-26T12:10:43.390Z,2.60
2023-03-26T12:13:29.907Z,33.30
2023-03-26T12:16:06.867Z,7.70
2023-03-26T12:18:33.969Z,4.30
2023-03-26T12:21:09.478Z,4.20
2023-03-26T12:23:51.116Z,3.70
2023-03-26T12:28:50.124Z,3.60
2023-03-26T12:31:19.050Z,2.80
2023-03-26T12:34:03.765Z,7.00
2023-03-26T12:36:33.151Z,3.80
2023-03-26T12:39:16.748Z,3.70
2023-03-26T12:44:42.225Z,2.40
2023-03-26T12:44:58.975Z,2.90
2023-03-26T12:48:00.460Z,4.00
2023-03-26T12:50:17.899Z,2.40
2023-03-26T12:53:27.579Z,2.40
2023-03-26T12:56:19.016Z,2.80
2023-03-26T12:59:17.255Z,3.50
2023-03-26T13:01:54.765Z,2.50
2023-03-26T13:04:49.225Z,3.40
2023-03-26T13:07:40.443Z,3.10
2023-03-26T13:10:28.918Z,1.50
2023-03-26T13:13:18.117Z,1.80
2023-03-26T13:15:52.361Z,3.00
2023-03-26T13:18:49.167Z,3.10
2023-03-26T13:21:18.689Z,3.10
2023-03-26T13:24:00.812Z,2.60
2023-03-26T13:26:51.701Z,1.20
2023-03-26T13:29:36.753Z,3.00
2023-03-26T13:32:12.103Z,3.90
2023-03-26T13:34:47.905Z,2.40
2023-03-26T13:37:18.568Z,28.30
2023-03-26T13:40:00.270Z,4.10
2023-03-26T13:42:45.191Z,3.50
2023-03-26T13:45:13.974Z,3.20
2023-03-26T13:47:48.985Z,1.60
2023-03-26T13:50:25.852Z,1.00
2023-03-26T13:53:27.220Z,0.90
2023-03-26T13:55:57.896Z,1.60
2023-03-26T13:58:34.354Z,1.00
2023-03-26T14:01:22.356Z,2.10
2023-03-26T14:04:11.927Z,1.90
2023-03-26T14:07:01.408Z,1.50
2023-03-26T14:09:40.683Z,3.10
2023-03-26T14:12:22.218Z,4.00
2023-03-26T14:14:55.873Z,2.70
2023-03-26T14:17:25.144Z,2.50
2023-03-26T14:20:00.764Z,1.90
2023-03-26T14:22:42.941Z,1.10
2023-03-26T14:25:47.291Z,2.50
2023-03-26T14:28:51.124Z,0.90
2023-03-26T14:32:02.422Z,1.50
2023-03-26T14:34:55.506Z,0.80
2023-03-26T14:37:34.065Z,2.50
2023-03-26T14:40:22.244Z,1.50
2023-03-26T14:43:20.834Z,1.40
2023-03-26T14:46:09.279Z,3.70
2023-03-26T14:49:01.030Z,0.90
2023-03-26T14:54:08.624Z,2.30
2023-03-26T14:57:04.607Z,1.70
2023-03-26T14:59:58.388Z,1.30
2023-03-26T15:02:25.005Z,1.00
2023-03-26T15:04:54.456Z,2.40
2023-03-26T15:07:47.492Z,2.00
2023-03-26T15:10:41.114Z,1.60
2023-03-26T15:13:54.077Z,2.30
2023-03-26T15:17:02.370Z,3.00
2023-03-26T15:19:53.941Z,2.70
2023-03-26T15:22:29.225Z,1.40
2023-03-26T15:25:01.601Z,1.30
2023-03-26T15:27:46.801Z,4.00
2023-03-26T15:30:55.214Z,3.80
2023-03-26T15:34:00.481Z,2.20
2023-03-26T15:36:59.142Z,1.80
2023-03-26T15:39:59.056Z,1.40
2023-03-26T15:42:32.507Z,1.70
2023-03-26T15:45:20.733Z,2.40
2023-03-26T15:48:07.586Z,2.90
2023-03-26T15:50:57.906Z,1.90
2023-03-26T15:53:24.577Z,1.70
2023-03-26T15:56:13.649Z,1.80
2023-03-26T15:58:59.459Z,2.30
2023-03-26T16:01:32.521Z,1.90
2023-03-26T16:04:14.557Z,1.80
2023-03-26T16:06:59.926Z,3.30
2023-03-26T16:09:38.758Z,2.00
2023-03-26T16:12:17.234Z,3.40
2023-03-26T16:14:43.833Z,2.80
2023-03-26T16:17:19.464Z,3.70
2023-03-26T16:19:45.937Z,2.60
2023-03-26T16:22:34.927Z,4.20
2023-03-26T16:25:26.897Z,4.80
2023-03-26T16:28:26.382Z,3.60
2023-03-26T16:31:10.690Z,3.30
2023-03-26T16:36:48.148Z,2.90
2023-03-26T16:39:22.364Z,5.00
2023-03-26T16:41:55.127Z,5.60
2023-03-26T16:44:40.260Z,5.50
2023-03-26T16:47:06.664Z,4.90
2023-03-26T16:49:45.481Z,2.90
2023-03-26T16:52:22.060Z,4.60
2023-03-26T16:55:03.882Z,4.50
2023-03-26T16:57:50.009Z,5.20
2023-03-26T17:00:28.758Z,5.70
2023-03-26T17:03:03.136Z,6.00
2023-03-26T17:05:54.595Z,7.10
2023-03-26T17:08:35.477Z,6.30
2023-03-26T17:11:16.008Z,5.40
2023-03-26T17:14:04.056Z,6.80
2023-03-26T17:16:42.497Z,5.10
2023-03-26T17:19:24.518Z,5.00
2023-03-26T17:22:05.916Z,5.00
2023-03-26T17:24:39.498Z,5.50
2023-03-26T17:27:28.920Z,4.90
2023-03-26T17:30:09.033Z,4.40
2023-03-26T17:32:59.021Z,5.00
2023-03-26T17:35:50.838Z,5.60
2023-03-26T17:40:55.904Z,6.60
2023-03-26T17:43:44.568Z,14.60
2023-03-26T17:46:41.264Z,7.30
2023-03-26T17:49:17.935Z,7.00
2023-03-26T17:51:52.613Z,5.20
2023-03-26T17:54:24.450Z,19.00
2023-03-26T17:56:53.031Z,7.50
2023-03-26T17:59:22.724Z,7.50
2023-03-26T18:01:57.426Z,6.30
2023-03-26T18:04:33.539Z,5.60
2023-03-26T18:07:27.383Z,5.70
2023-03-26T18:10:15.320Z,6.20
2023-03-26T18:12:54.183Z,5.70
2023-03-26T18:15:30.538Z,7.60
2023-03-26T18:18:09.294Z,7.00
2023-03-26T18:20:36.718Z,8.20
2023-03-26T18:23:12.653Z,8.90
2023-03-26T18:25:39.337Z,7.60
2023-03-26T18:28:05.848Z,10.50
2023-03-26T18:30:32.424Z,8.20
2023-03-26T18:33:11.145Z,8.50
2023-03-26T18:35:46.299Z,9.00
2023-03-26T18:38:18.793Z,7.60
2023-03-26T18:41:02.298Z,8.90
2023-03-26T18:43:34.687Z,9.20
2023-03-26T18:46:03.649Z,8.60
2023-03-26T18:48:30.398Z,13.50
2023-03-26T18:51:00.962Z,9.30
2023-03-26T18:53:38.942Z,8.10
2023-03-26T18:56:29.529Z,8.20
2023-03-26T18:58:59.063Z,8.60
2023-03-26T19:01:27.751Z,9.70
2023-03-26T19:03:54.607Z,9.90
2023-03-26T19:06:21.905Z,10.50
2023-03-26T19:08:49.014Z,9.60
2023-03-26T19:11:17.249Z,12.70
2023-03-26T19:13:43.789Z,11.30
2023-03-26T19:16:40.735Z,10.90
2023-03-26T19:19:07.754Z,12.40
2023-03-26T19:21:36.114Z,10.90
2023-03-26T19:24:04.250Z,11.20
2023-03-26T19:26:31.094Z,12.30
2023-03-26T19:28:58.281Z,11.40
2023-03-26T19:31:26.461Z,12.30
2023-03-26T19:34:00.334Z,12.10
2023-03-26T19:36:29.824Z,11.30
2023-03-26T19:38:59.350Z,10.70
2023-03-26T19:41:38.161Z,9.20
2023-03-26T19:44:20.715Z,8.60
2023-03-26T19:46:53.624Z,10.20
2023-03-26T19:49:41.119Z,10.10
2023-03-26T19:52:18.281Z,11.50
2023-03-26T19:55:00.739Z,12.90
2023-03-26T19:57:32.144Z,14.90
2023-03-26T19:59:59.350Z,9.80
2023-03-26T20:02:27.432Z,10.60
2023-03-26T20:04:54.008Z,10.80
2023-03-26T20:07:35.813Z,10.00
2023-03-26T20:10:04.671Z,10.60
2023-03-26T20:12:31.187Z,8.70
2023-03-26T20:14:57.730Z,15.20
2023-03-26T20:17:24.191Z,9.40
2023-03-26T20:19:50.649Z,15.20
2023-03-26T20:22:18.921Z,12.40
2023-03-26T20:24:45.434Z,10.70
2023-03-26T20:27:11.996Z,9.70
2023-03-26T20:29:38.490Z,10.80
2023-03-26T20:32:06.891Z,9.70
2023-03-26T20:34:33.327Z,10.50
2023-03-26T20:37:01.222Z,10.20
2023-03-26T20:39:28.032Z,8.40
2023-03-26T20:41:55.174Z,12.10
2023-03-26T20:44:22.066Z,11.00
2023-03-26T20:46:50.228Z,11.10
2023-03-26T20:49:17.040Z,9.50
2023-03-26T20:51:44.125Z,10.50
2023-03-26T20:54:20.137Z,11.10
2023-03-26T20:56:47.230Z,11.40
2023-03-26T20:59:18.200Z,9.90
2023-03-26T21:01:45.769Z,10.60
2023-03-26T21:04:12.391Z,12.30
2023-03-26T21:06:38.973Z,8.90
2023-03-26T21:09:05.992Z,9.30
2023-03-26T21:11:55.313Z,7.70
2023-03-26T21:14:25.720Z,8.60
2023-03-26T21:16:52.680Z,8.40
2023-03-26T21:19:19.481Z,6.00
2023-03-26T21:22:03.323Z,8.40
2023-03-26T21:24:41.976Z,7.70
2023-03-26T21:27:27.339Z,6.50
2023-03-26T21:29:55.323Z,6.10
2023-03-26T21:32:22.876Z,6.00
2023-03-26T21:34:58.751Z,6.00
2023-03-26T21:37:26.538Z,7.60
2023-03-26T21:39:53.323Z,8.60
2023-03-26T21:42:20.055Z,6.80
2023-03-26T21:44:46.839Z,6.20
2023-03-26T21:47:13.832Z,7.20
2023-03-26T21:49:40.561Z,7.90
2023-03-26T21:52:07.588Z,8.80
2023-03-26T21:54:34.373Z,8.20
2023-03-26T21:57:22.621Z,7.20
2023-03-26T22:00:06.320Z,6.90
2023-03-26T22:02:55.755Z,9.10
2023-03-26T22:05:54.565Z,7.80
2023-03-26T22:08:36.456Z,9.20
2023-03-26T22:11:02.987Z,9.20
2023-03-26T22:13:29.482Z,8.20
2023-03-26T22:15:55.992Z,8.70
2023-03-26T22:18:22.597Z,7.70
2023-03-26T22:20:49.504Z,7.70
2023-03-26T22:23:16.406Z,6.70
2023-03-26T22:25:42.958Z,7.80
2023-03-26T22:28:09.630Z,9.80
2023-03-26T22:30:36.096Z,7.80
2023-03-26T22:33:02.652Z,7.40
2023-03-26T22:35:29.168Z,7.30
2023-03-26T22:38:00.904Z,10.90
2023-03-26T22:40:27.817Z,9.90
2023-03-26T22:42:54.337Z,8.70
2023-03-26T22:45:20.872Z,9.40
2023-03-26T22:47:47.429Z,8.70
2023-03-26T22:50:14.015Z,8.60
2023-03-26T22:52:40.705Z,7.10
2023-03-26T22:55:08.596Z,7.00
2023-03-26T22:57:35.129Z,7.90
2023-03-26T23:00:01.652Z,6.90
2023-03-26T23:02:28.144Z,7.00
2023-03-26T23:04:54.795Z,7.00
2023-03-26T23:07:21.328Z,7.60
2023-03-26T23:09:47.807Z,6.20
2023-03-26T23:12:14.284Z,6.20
2023-03-26T23:14:40.767Z,7.00
2023-03-26T23:17:07.270Z,6.70
2023-03-26T23:19:33.752Z,7.60
2023-03-26T23:22:00.263Z,6.30
2023-03-26T23:24:26.720Z,6.40
2023-03-26T23:26:53.323Z,6.30
2023-03-26T23:29:20.034Z,6.40
2023-03-26T23:31:46.708Z,7.60
2023-03-26T23:34:13.279Z,6.50
2023-03-26T23:36:39.795Z,5.90
2023-03-26T23:39:06.263Z,6.70
2023-03-26T23:41:32.763Z,6.40
2023-03-26T23:43:59.246Z,9.10
2023-03-26T23:46:28.209Z,6.70
2023-03-26T23:48:54.732Z,6.80
2023-03-26T23:51:21.852Z,5.10
2023-03-26T23:53:49.513Z,5.20
2023-03-26T23:56:16.556Z,6.90
2023-03-26T23:58:43.035Z,5.80
